sensor_id;sensor_type;location;lat;lon;timestamp;pressure;altitude;pressure_sealevel;temperature;humidity
83894;BME280;73920;51.902;6.374;2023-12-22T00:02:26;100028.84;;;5.67;81.91
83894;BME280;73920;51.902;6.374;2023-12-22T00:04:52;100035.00;;;5.68;81.89
83894;BME280;73920;51.902;6.374;2023-12-22T00:07:18;100038.44;;;5.70;81.98
83894;BME280;73920;51.902;6.374;2023-12-22T00:09:44;100047.31;;;5.69;82.05
83894;BME280;73920;51.902;6.374;2023-12-22T00:12:10;100052.72;;;5.67;82.05
83894;BME280;73920;51.902;6.374;2023-12-22T00:14:36;100049.19;;;5.67;82.25
83894;BME280;73920;51.902;6.374;2023-12-22T00:17:03;100058.78;;;5.69;82.00
83894;BME280;73920;51.902;6.374;2023-12-22T00:19:29;100068.38;;;5.72;81.80
83894;BME280;73920;51.902;6.374;2023-12-22T00:21:56;100075.97;;;5.79;81.57
83894;BME280;73920;51.902;6.374;2023-12-22T00:24:22;100077.56;;;5.83;81.47
83894;BME280;73920;51.902;6.374;2023-12-22T00:26:48;100079.25;;;5.86;81.46
83894;BME280;73920;51.902;6.374;2023-12-22T00:29:14;100083.72;;;5.84;81.50
83894;BME280;73920;51.902;6.374;2023-12-22T00:31:40;100088.13;;;5.85;81.51
83894;BME280;73920;51.902;6.374;2023-12-22T00:34:06;100088.00;;;5.88;81.74
83894;BME280;73920;51.902;6.374;2023-12-22T00:36:33;100073.81;;;5.89;81.71
83894;BME280;73920;51.902;6.374;2023-12-22T00:38:59;100072.72;;;5.93;81.86
83894;BME280;73920;51.902;6.374;2023-12-22T00:41:25;100085.69;;;5.99;81.86
83894;BME280;73920;51.902;6.374;2023-12-22T00:43:51;100086.19;;;6.07;81.72
83894;BME280;73920;51.902;6.374;2023-12-22T00:46:17;100084.31;;;6.09;81.68
83894;BME280;73920;51.902;6.374;2023-12-22T00:48:44;100083.16;;;6.15;81.61
83894;BME280;73920;51.902;6.374;2023-12-22T00:51:10;100083.88;;;6.18;80.82
83894;BME280;73920;51.902;6.374;2023-12-22T00:53:36;100086.38;;;6.21;81.03
83894;BME280;73920;51.902;6.374;2023-12-22T00:56:02;100080.97;;;6.23;81.10
83894;BME280;73920;51.902;6.374;2023-12-22T00:58:32;100094.09;;;6.26;81.29
83894;BME280;73920;51.902;6.374;2023-12-22T01:01:01;100098.31;;;6.30;81.84
83894;BME280;73920;51.902;6.374;2023-12-22T01:03:28;100087.72;;;6.30;82.22
83894;BME280;73920;51.902;6.374;2023-12-22T01:05:54;100088.56;;;6.30;81.30
83894;BME280;73920;51.902;6.374;2023-12-22T01:08:20;100092.09;;;6.31;80.70
83894;BME280;73920;51.902;6.374;2023-12-22T01:10:46;100099.19;;;6.30;80.42
83894;BME280;73920;51.902;6.374;2023-12-22T01:13:12;100113.25;;;6.32;80.13
83894;BME280;73920;51.902;6.374;2023-12-22T01:15:39;100129.19;;;6.32;79.87
83894;BME280;73920;51.902;6.374;2023-12-22T01:18:05;100130.88;;;6.33;79.81
83894;BME280;73920;51.902;6.374;2023-12-22T01:20:31;100132.63;;;6.34;79.89
83894;BME280;73920;51.902;6.374;2023-12-22T01:22:57;100121.28;;;6.31;80.15
83894;BME280;73920;51.902;6.374;2023-12-22T01:25:24;100117.00;;;6.28;79.79
83894;BME280;73920;51.902;6.374;2023-12-22T01:27:50;100124.16;;;6.26;79.45
83894;BME280;73920;51.902;6.374;2023-12-22T01:30:16;100110.19;;;6.23;79.20
83894;BME280;73920;51.902;6.374;2023-12-22T01:32:42;100107.69;;;6.20;78.93
83894;BME280;73920;51.902;6.374;2023-12-22T01:35:08;100127.34;;;6.16;78.95
83894;BME280;73920;51.902;6.374;2023-12-22T01:37:35;100128.34;;;6.13;79.37
83894;BME280;73920;51.902;6.374;2023-12-22T01:40:02;100111.06;;;6.05;79.44
83894;BME280;73920;51.902;6.374;2023-12-22T01:42:28;100128.22;;;5.98;79.95
83894;BME280;73920;51.902;6.374;2023-12-22T01:44:54;100136.41;;;5.93;80.15
83894;BME280;73920;51.902;6.374;2023-12-22T01:47:21;100143.41;;;5.94;80.25
83894;BME280;73920;51.902;6.374;2023-12-22T01:49:48;100157.47;;;5.96;80.50
83894;BME280;73920;51.902;6.374;2023-12-22T01:52:15;100148.44;;;6.00;80.52
83894;BME280;73920;51.902;6.374;2023-12-22T01:54:42;100147.44;;;6.03;80.26
83894;BME280;73920;51.902;6.374;2023-12-22T01:57:11;100155.31;;;6.04;80.26
83894;BME280;73920;51.902;6.374;2023-12-22T01:59:40;100172.97;;;6.05;80.00
83894;BME280;73920;51.902;6.374;2023-12-22T02:02:07;100171.97;;;6.08;79.97
83894;BME280;73920;51.902;6.374;2023-12-22T02:04:33;100156.84;;;6.10;79.83
83894;BME280;73920;51.902;6.374;2023-12-22T02:07:01;100166.37;;;6.14;79.85
83894;BME280;73920;51.902;6.374;2023-12-22T02:09:28;100159.34;;;6.13;78.96
83894;BME280;73920;51.902;6.374;2023-12-22T02:11:54;100163.00;;;6.10;78.73
83894;BME280;73920;51.902;6.374;2023-12-22T02:14:20;100157.91;;;6.06;78.88
83894;BME280;73920;51.902;6.374;2023-12-22T02:16:53;100151.16;;;5.99;79.04
83894;BME280;73920;51.902;6.374;2023-12-22T02:22:03;100165.19;;;5.82;79.60
83894;BME280;73920;51.902;6.374;2023-12-22T02:24:30;100159.16;;;5.78;79.78
83894;BME280;73920;51.902;6.374;2023-12-22T02:29:37;100166.84;;;5.84;79.78
83894;BME280;73920;51.902;6.374;2023-12-22T02:32:10;100168.34;;;5.90;79.50
83894;BME280;73920;51.902;6.374;2023-12-22T02:34:39;100169.06;;;5.93;79.50
83894;BME280;73920;51.902;6.374;2023-12-22T02:37:08;100178.56;;;5.99;79.49
83894;BME280;73920;51.902;6.374;2023-12-22T02:39:35;100167.84;;;6.01;79.46
83894;BME280;73920;51.902;6.374;2023-12-22T02:42:03;100169.53;;;6.03;79.62
83894;BME280;73920;51.902;6.374;2023-12-22T02:44:30;100161.41;;;6.06;79.84
83894;BME280;73920;51.902;6.374;2023-12-22T02:46:57;100165.66;;;6.10;80.14
83894;BME280;73920;51.902;6.374;2023-12-22T02:49:23;100165.44;;;6.15;80.00
83894;BME280;73920;51.902;6.374;2023-12-22T02:51:49;100149.44;;;6.16;80.30
83894;BME280;73920;51.902;6.374;2023-12-22T02:54:15;100136.97;;;6.18;79.89
83894;BME280;73920;51.902;6.374;2023-12-22T02:56:42;100127.12;;;6.20;79.84
83894;BME280;73920;51.902;6.374;2023-12-22T02:59:08;100128.91;;;6.20;79.99
83894;BME280;73920;51.902;6.374;2023-12-22T03:01:35;100142.19;;;6.20;80.15
83894;BME280;73920;51.902;6.374;2023-12-22T03:04:01;100136.00;;;6.19;80.05
83894;BME280;73920;51.902;6.374;2023-12-22T03:06:27;100142.28;;;6.18;80.32
83894;BME280;73920;51.902;6.374;2023-12-22T03:08:53;100141.31;;;6.19;80.29
83894;BME280;73920;51.902;6.374;2023-12-22T03:11:20;100141.16;;;6.22;80.58
83894;BME280;73920;51.902;6.374;2023-12-22T03:13:46;100138.50;;;6.22;81.12
83894;BME280;73920;51.902;6.374;2023-12-22T03:16:12;100139.47;;;6.21;81.21
83894;BME280;73920;51.902;6.374;2023-12-22T03:18:39;100140.25;;;6.23;81.15
83894;BME280;73920;51.902;6.374;2023-12-22T03:21:05;100163.06;;;6.27;81.79
83894;BME280;73920;51.902;6.374;2023-12-22T03:23:31;100174.53;;;6.28;81.82
83894;BME280;73920;51.902;6.374;2023-12-22T03:25:57;100198.34;;;6.29;82.71
83894;BME280;73920;51.902;6.374;2023-12-22T03:28:23;100224.97;;;6.28;82.85
83894;BME280;73920;51.902;6.374;2023-12-22T03:30:49;100207.53;;;6.22;82.42
83894;BME280;73920;51.902;6.374;2023-12-22T03:33:16;100191.69;;;6.02;82.00
83894;BME280;73920;51.902;6.374;2023-12-22T03:35:42;100168.56;;;5.85;82.22
83894;BME280;73920;51.902;6.374;2023-12-22T03:38:08;100185.03;;;5.73;82.91
83894;BME280;73920;51.902;6.374;2023-12-22T03:40:34;100162.41;;;5.65;83.33
83894;BME280;73920;51.902;6.374;2023-12-22T03:43:00;100171.44;;;5.61;83.45
83894;BME280;73920;51.902;6.374;2023-12-22T03:45:27;100189.22;;;5.59;83.39
83894;BME280;73920;51.902;6.374;2023-12-22T03:47:53;100201.72;;;5.57;83.49
83894;BME280;73920;51.902;6.374;2023-12-22T03:50:19;100217.72;;;5.54;83.59
83894;BME280;73920;51.902;6.374;2023-12-22T03:52:45;100198.53;;;5.49;83.68
83894;BME280;73920;51.902;6.374;2023-12-22T03:55:11;100147.31;;;5.28;83.96
83894;BME280;73920;51.902;6.374;2023-12-22T03:57:38;100191.91;;;5.38;84.26
83894;BME280;73920;51.902;6.374;2023-12-22T04:00:05;100210.66;;;5.34;84.13
83894;BME280;73920;51.902;6.374;2023-12-22T04:02:31;100205.41;;;5.32;84.32
83894;BME280;73920;51.902;6.374;2023-12-22T04:04:57;100215.16;;;5.32;84.48
83894;BME280;73920;51.902;6.374;2023-12-22T04:07:24;100203.63;;;5.33;84.63
83894;BME280;73920;51.902;6.374;2023-12-22T04:09:50;100198.31;;;5.33;84.95
83894;BME280;73920;51.902;6.374;2023-12-22T04:12:16;100194.91;;;5.31;84.93
83894;BME280;73920;51.902;6.374;2023-12-22T04:14:42;100190.56;;;5.28;85.15
83894;BME280;73920;51.902;6.374;2023-12-22T04:17:08;100199.47;;;5.27;85.26
83894;BME280;73920;51.902;6.374;2023-12-22T04:19:36;100199.34;;;5.30;85.05
83894;BME280;73920;51.902;6.374;2023-12-22T04:22:02;100209.25;;;5.25;85.10
83894;BME280;73920;51.902;6.374;2023-12-22T04:24:29;100198.97;;;5.18;85.38
83894;BME280;73920;51.902;6.374;2023-12-22T04:26:55;100197.59;;;5.09;85.39
83894;BME280;73920;51.902;6.374;2023-12-22T04:29:21;100204.09;;;5.02;85.33
83894;BME280;73920;51.902;6.374;2023-12-22T04:31:47;100204.31;;;4.96;85.96
83894;BME280;73920;51.902;6.374;2023-12-22T04:34:14;100202.72;;;4.92;85.87
83894;BME280;73920;51.902;6.374;2023-12-22T04:36:40;100202.00;;;4.88;86.20
83894;BME280;73920;51.902;6.374;2023-12-22T04:39:06;100201.16;;;4.88;86.10
83894;BME280;73920;51.902;6.374;2023-12-22T04:41:33;100190.66;;;4.85;86.34
83894;BME280;73920;51.902;6.374;2023-12-22T04:43:59;100195.97;;;4.85;86.37
83894;BME280;73920;51.902;6.374;2023-12-22T04:46:25;100194.25;;;4.84;86.48
83894;BME280;73920;51.902;6.374;2023-12-22T04:48:51;100192.53;;;4.83;86.15
83894;BME280;73920;51.902;6.374;2023-12-22T04:51:17;100179.25;;;4.84;86.20
83894;BME280;73920;51.902;6.374;2023-12-22T04:53:44;100186.19;;;4.87;86.27
83894;BME280;73920;51.902;6.374;2023-12-22T04:56:10;100201.03;;;4.91;86.44
83894;BME280;73920;51.902;6.374;2023-12-22T04:58:36;100195.66;;;4.92;86.12
83894;BME280;73920;51.902;6.374;2023-12-22T05:01:02;100206.06;;;4.97;85.49
83894;BME280;73920;51.902;6.374;2023-12-22T05:03:29;100220.91;;;5.01;85.82
83894;BME280;73920;51.902;6.374;2023-12-22T05:05:55;100211.97;;;5.04;85.44
83894;BME280;73920;51.902;6.374;2023-12-22T05:08:21;100228.09;;;5.19;85.19
83894;BME280;73920;51.902;6.374;2023-12-22T05:10:47;100224.09;;;5.29;85.25
83894;BME280;73920;51.902;6.374;2023-12-22T05:13:13;100229.84;;;5.39;85.22
83894;BME280;73920;51.902;6.374;2023-12-22T05:15:40;100240.22;;;5.45;84.83
83894;BME280;73920;51.902;6.374;2023-12-22T05:18:06;100248.72;;;5.53;84.71
83894;BME280;73920;51.902;6.374;2023-12-22T05:20:32;100256.31;;;5.61;84.68
83894;BME280;73920;51.902;6.374;2023-12-22T05:22:59;100252.47;;;5.68;84.61
83894;BME280;73920;51.902;6.374;2023-12-22T05:25:25;100225.72;;;5.72;84.56
83894;BME280;73920;51.902;6.374;2023-12-22T05:27:51;100214.00;;;5.78;84.40
83894;BME280;73920;51.902;6.374;2023-12-22T05:30:17;100224.38;;;5.82;84.19
83894;BME280;73920;51.902;6.374;2023-12-22T05:32:44;100223.41;;;5.85;84.31
83894;BME280;73920;51.902;6.374;2023-12-22T05:35:10;100243.50;;;5.90;84.50
83894;BME280;73920;51.902;6.374;2023-12-22T05:37:36;100228.47;;;5.91;84.31
83894;BME280;73920;51.902;6.374;2023-12-22T05:40:03;100238.16;;;5.92;84.33
83894;BME280;73920;51.902;6.374;2023-12-22T05:42:29;100235.41;;;5.93;84.00
83894;BME280;73920;51.902;6.374;2023-12-22T05:44:56;100228.25;;;5.96;84.19
83894;BME280;73920;51.902;6.374;2023-12-22T05:47:22;100224.03;;;5.91;84.19
83894;BME280;73920;51.902;6.374;2023-12-22T05:49:48;100233.47;;;5.97;84.09
83894;BME280;73920;51.902;6.374;2023-12-22T05:52:14;100234.28;;;5.99;84.17
83894;BME280;73920;51.902;6.374;2023-12-22T05:54:40;100229.75;;;6.01;84.19
83894;BME280;73920;51.902;6.374;2023-12-22T05:57:07;100228.78;;;6.04;84.34
83894;BME280;73920;51.902;6.374;2023-12-22T05:59:33;100219.87;;;6.05;84.11
83894;BME280;73920;51.902;6.374;2023-12-22T06:02:00;100210.06;;;6.07;83.70
83894;BME280;73920;51.902;6.374;2023-12-22T06:04:26;100197.66;;;6.07;83.94
83894;BME280;73920;51.902;6.374;2023-12-22T06:06:53;100203.81;;;6.08;83.99
83894;BME280;73920;51.902;6.374;2023-12-22T06:09:19;100201.88;;;6.11;83.58
83894;BME280;73920;51.902;6.374;2023-12-22T06:11:45;100209.69;;;6.14;83.71
83894;BME280;73920;51.902;6.374;2023-12-22T06:14:12;100219.25;;;6.18;83.51
83894;BME280;73920;51.902;6.374;2023-12-22T06:16:38;100209.41;;;6.20;83.86
83894;BME280;73920;51.902;6.374;2023-12-22T06:19:05;100193.47;;;6.20;84.11
83894;BME280;73920;51.902;6.374;2023-12-22T06:21:31;100205.03;;;6.19;84.03
83894;BME280;73920;51.902;6.374;2023-12-22T06:23:57;100212.97;;;6.19;84.17
83894;BME280;73920;51.902;6.374;2023-12-22T06:26:23;100208.53;;;6.20;84.03
83894;BME280;73920;51.902;6.374;2023-12-22T06:28:49;100209.41;;;6.20;83.91
83894;BME280;73920;51.902;6.374;2023-12-22T06:31:20;100202.22;;;6.22;83.88
83894;BME280;73920;51.902;6.374;2023-12-22T06:33:47;100153.47;;;6.06;84.20
83894;BME280;73920;51.902;6.374;2023-12-22T06:36:22;100190.81;;;6.20;84.28
83894;BME280;73920;51.902;6.374;2023-12-22T06:38:49;100207.63;;;6.21;84.39
83894;BME280;73920;51.902;6.374;2023-12-22T06:43:46;100195.47;;;6.15;84.42
83894;BME280;73920;51.902;6.374;2023-12-22T06:46:20;100200.94;;;6.12;84.40
83894;BME280;73920;51.902;6.374;2023-12-22T06:48:46;100166.44;;;5.93;84.61
83894;BME280;73920;51.902;6.374;2023-12-22T06:51:18;100187.91;;;6.08;84.53
83894;BME280;73920;51.902;6.374;2023-12-22T06:53:45;100176.34;;;6.09;84.80
83894;BME280;73920;51.902;6.374;2023-12-22T06:58:47;100177.84;;;6.14;84.91
83894;BME280;73920;51.902;6.374;2023-12-22T07:01:22;100174.12;;;6.18;84.60
83894;BME280;73920;51.902;6.374;2023-12-22T07:03:49;100167.66;;;6.24;84.62
83894;BME280;73920;51.902;6.374;2023-12-22T07:06:16;100159.25;;;6.33;84.21
83894;BME280;73920;51.902;6.374;2023-12-22T07:08:43;100154.25;;;6.44;84.21
83894;BME280;73920;51.902;6.374;2023-12-22T07:11:10;100154.53;;;6.57;83.96
83894;BME280;73920;51.902;6.374;2023-12-22T07:13:37;100136.28;;;6.68;83.95
83894;BME280;73920;51.902;6.374;2023-12-22T07:16:05;100145.50;;;6.78;84.03
83894;BME280;73920;51.902;6.374;2023-12-22T07:18:31;100148.53;;;6.87;83.05
83894;BME280;73920;51.902;6.374;2023-12-22T07:20:58;100150.81;;;6.95;83.16
83894;BME280;73920;51.902;6.374;2023-12-22T07:23:25;100161.00;;;7.04;83.22
83894;BME280;73920;51.902;6.374;2023-12-22T07:25:52;100172.00;;;7.14;82.98
83894;BME280;73920;51.902;6.374;2023-12-22T07:28:18;100178.72;;;7.21;82.57
83894;BME280;73920;51.902;6.374;2023-12-22T07:30:44;100183.75;;;7.27;82.08
83894;BME280;73920;51.902;6.374;2023-12-22T07:33:10;100196.09;;;7.28;82.24
83894;BME280;73920;51.902;6.374;2023-12-22T07:35:37;100197.97;;;7.26;82.42
83894;BME280;73920;51.902;6.374;2023-12-22T07:38:03;100197.13;;;7.25;82.36
83894;BME280;73920;51.902;6.374;2023-12-22T07:40:29;100197.81;;;7.29;82.46
83894;BME280;73920;51.902;6.374;2023-12-22T07:42:56;100199.38;;;7.33;82.75
83894;BME280;73920;51.902;6.374;2023-12-22T07:45:23;100196.72;;;7.33;82.62
83894;BME280;73920;51.902;6.374;2023-12-22T07:47:49;100193.91;;;7.36;82.85
83894;BME280;73920;51.902;6.374;2023-12-22T07:50:15;100199.00;;;7.40;82.42
83894;BME280;73920;51.902;6.374;2023-12-22T07:52:41;100199.75;;;7.42;83.06
83894;BME280;73920;51.902;6.374;2023-12-22T07:55:08;100199.75;;;7.42;82.60
83894;BME280;73920;51.902;6.374;2023-12-22T07:57:35;100204.91;;;7.46;82.24
83894;BME280;73920;51.902;6.374;2023-12-22T08:00:01;100204.78;;;7.49;82.40
83894;BME280;73920;51.902;6.374;2023-12-22T08:02:27;100211.62;;;7.53;82.69
83894;BME280;73920;51.902;6.374;2023-12-22T08:04:54;100214.91;;;7.58;82.46
83894;BME280;73920;51.902;6.374;2023-12-22T08:07:20;100210.13;;;7.64;82.20
83894;BME280;73920;51.902;6.374;2023-12-22T08:09:46;100209.97;;;7.67;82.19
83894;BME280;73920;51.902;6.374;2023-12-22T08:12:12;100207.06;;;7.72;82.06
83894;BME280;73920;51.902;6.374;2023-12-22T08:14:39;100208.81;;;7.73;81.92
83894;BME280;73920;51.902;6.374;2023-12-22T08:17:05;100207.69;;;7.77;81.55
83894;BME280;73920;51.902;6.374;2023-12-22T08:19:31;100204.00;;;7.79;81.58
83894;BME280;73920;51.902;6.374;2023-12-22T08:21:57;100210.03;;;7.83;81.39
83894;BME280;73920;51.902;6.374;2023-12-22T08:24:24;100207.38;;;7.83;81.69
83894;BME280;73920;51.902;6.374;2023-12-22T08:26:50;100205.47;;;7.85;81.34
83894;BME280;73920;51.902;6.374;2023-12-22T08:29:16;100218.47;;;7.91;81.19
83894;BME280;73920;51.902;6.374;2023-12-22T08:31:43;100193.41;;;7.95;81.89
83894;BME280;73920;51.902;6.374;2023-12-22T08:34:09;100191.59;;;7.96;81.54
83894;BME280;73920;51.902;6.374;2023-12-22T08:36:35;100187.91;;;7.98;81.28
83894;BME280;73920;51.902;6.374;2023-12-22T08:39:01;100190.41;;;8.01;81.18
83894;BME280;73920;51.902;6.374;2023-12-22T08:41:28;100185.00;;;8.03;81.90
83894;BME280;73920;51.902;6.374;2023-12-22T08:43:54;100177.84;;;8.03;81.96
83894;BME280;73920;51.902;6.374;2023-12-22T08:46:20;100207.13;;;8.03;81.24
83894;BME280;73920;51.902;6.374;2023-12-22T08:48:46;100187.91;;;7.98;80.85
83894;BME280;73920;51.902;6.374;2023-12-22T08:51:12;100186.34;;;7.94;82.09
83894;BME280;73920;51.902;6.374;2023-12-22T08:53:39;100177.59;;;7.92;81.84
83894;BME280;73920;51.902;6.374;2023-12-22T08:56:05;100175.19;;;7.87;82.06
83894;BME280;73920;51.902;6.374;2023-12-22T08:58:31;100192.25;;;7.83;82.42
83894;BME280;73920;51.902;6.374;2023-12-22T09:00:58;100190.78;;;7.78;82.41
83894;BME280;73920;51.902;6.374;2023-12-22T09:03:24;100194.56;;;7.74;83.09
83894;BME280;73920;51.902;6.374;2023-12-22T09:05:50;100185.03;;;7.70;82.95
83894;BME280;73920;51.902;6.374;2023-12-22T09:08:16;100175.38;;;7.67;82.91
83894;BME280;73920;51.902;6.374;2023-12-22T09:10:42;100186.13;;;7.66;83.08
83894;BME280;73920;51.902;6.374;2023-12-22T09:13:08;100174.69;;;7.64;83.74
83894;BME280;73920;51.902;6.374;2023-12-22T09:15:35;100175.53;;;7.64;83.33
83894;BME280;73920;51.902;6.374;2023-12-22T09:18:01;100163.09;;;7.65;83.41
83894;BME280;73920;51.902;6.374;2023-12-22T09:20:27;100172.03;;;7.64;83.50
83894;BME280;73920;51.902;6.374;2023-12-22T09:22:53;100161.38;;;7.64;83.82
83894;BME280;73920;51.902;6.374;2023-12-22T09:25:23;100152.47;;;7.65;83.16
83894;BME280;73920;51.902;6.374;2023-12-22T09:27:49;100145.28;;;7.67;83.94
83894;BME280;73920;51.902;6.374;2023-12-22T09:30:15;100142.50;;;7.68;83.93
83894;BME280;73920;51.902;6.374;2023-12-22T09:32:42;100159.09;;;7.73;83.97
83894;BME280;73920;51.902;6.374;2023-12-22T09:35:08;100150.00;;;7.77;84.35
83894;BME280;73920;51.902;6.374;2023-12-22T09:37:34;100158.69;;;7.81;84.98
83894;BME280;73920;51.902;6.374;2023-12-22T09:40:00;100164.72;;;7.84;84.64
83894;BME280;73920;51.902;6.374;2023-12-22T09:42:26;100156.44;;;7.89;84.80
83894;BME280;73920;51.902;6.374;2023-12-22T09:44:54;100158.00;;;7.93;84.56
83894;BME280;73920;51.902;6.374;2023-12-22T09:47:21;100145.50;;;7.95;85.02
83894;BME280;73920;51.902;6.374;2023-12-22T09:49:48;100139.13;;;7.98;84.04
83894;BME280;73920;51.902;6.374;2023-12-22T09:52:16;100150.47;;;8.01;84.63
83894;BME280;73920;51.902;6.374;2023-12-22T09:54:43;100141.38;;;8.05;84.41
83894;BME280;73920;51.902;6.374;2023-12-22T09:57:10;100135.69;;;8.11;84.92
83894;BME280;73920;51.902;6.374;2023-12-22T09:59:37;100135.53;;;8.14;84.98
83894;BME280;73920;51.902;6.374;2023-12-22T10:02:04;100133.66;;;8.16;84.60
83894;BME280;73920;51.902;6.374;2023-12-22T10:04:33;100127.28;;;8.19;85.12
83894;BME280;73920;51.902;6.374;2023-12-22T10:07:02;100144.88;;;8.21;84.64
83894;BME280;73920;51.902;6.374;2023-12-22T10:09:29;100142.91;;;8.25;85.37
83894;BME280;73920;51.902;6.374;2023-12-22T10:11:57;100135.63;;;8.28;85.43
83894;BME280;73920;51.902;6.374;2023-12-22T10:14:26;100136.41;;;8.30;85.14
83894;BME280;73920;51.902;6.374;2023-12-22T10:16:53;100141.50;;;8.35;85.43
83894;BME280;73920;51.902;6.374;2023-12-22T10:19:20;100151.97;;;8.38;85.77
83894;BME280;73920;51.902;6.374;2023-12-22T10:21:48;100146.53;;;8.39;85.89
83894;BME280;73920;51.902;6.374;2023-12-22T10:26:50;100102.88;;;8.26;85.17
83894;BME280;73920;51.902;6.374;2023-12-22T10:29:16;100130.41;;;8.43;85.05
83894;BME280;73920;51.902;6.374;2023-12-22T10:31:42;100145.53;;;8.42;85.33
83894;BME280;73920;51.902;6.374;2023-12-22T10:34:09;100137.62;;;8.40;84.99
83894;BME280;73920;51.902;6.374;2023-12-22T10:36:35;100149.31;;;8.38;85.90
83894;BME280;73920;51.902;6.374;2023-12-22T10:39:01;100145.03;;;8.35;85.93
83894;BME280;73920;51.902;6.374;2023-12-22T10:41:27;100125.66;;;8.32;85.29
83894;BME280;73920;51.902;6.374;2023-12-22T10:43:54;100151.75;;;8.25;85.85
83894;BME280;73920;51.902;6.374;2023-12-22T10:46:20;100144.12;;;8.19;85.55
83894;BME280;73920;51.902;6.374;2023-12-22T10:48:47;100131.91;;;8.15;85.73
83894;BME280;73920;51.902;6.374;2023-12-22T10:51:13;100151.78;;;8.10;86.83
83894;BME280;73920;51.902;6.374;2023-12-22T10:53:42;100137.66;;;8.08;86.45
83894;BME280;73920;51.902;6.374;2023-12-22T10:56:08;100147.44;;;8.07;86.26
83894;BME280;73920;51.902;6.374;2023-12-22T10:58:35;100134.06;;;8.09;86.63
83894;BME280;73920;51.902;6.374;2023-12-22T11:01:02;100139.22;;;8.12;86.76
83894;BME280;73920;51.902;6.374;2023-12-22T11:03:29;100141.63;;;8.16;86.71
83894;BME280;73920;51.902;6.374;2023-12-22T11:06:03;100129.69;;;8.23;86.62
83894;BME280;73920;51.902;6.374;2023-12-22T11:08:30;100129.19;;;8.32;86.28
83894;BME280;73920;51.902;6.374;2023-12-22T11:10:59;100123.44;;;8.40;86.35
83894;BME280;73920;51.902;6.374;2023-12-22T11:13:32;100128.69;;;8.42;86.10
83894;BME280;73920;51.902;6.374;2023-12-22T11:15:59;100122.50;;;8.41;86.50
83894;BME280;73920;51.902;6.374;2023-12-22T11:18:26;100132.09;;;8.44;85.89
83894;BME280;73920;51.902;6.374;2023-12-22T11:20:54;100118.53;;;8.48;86.22
83894;BME280;73920;51.902;6.374;2023-12-22T11:23:23;100118.16;;;8.54;85.85
83894;BME280;73920;51.902;6.374;2023-12-22T11:25:51;100121.34;;;8.61;85.90
83894;BME280;73920;51.902;6.374;2023-12-22T11:28:19;100120.06;;;8.68;85.90
83894;BME280;73920;51.902;6.374;2023-12-22T11:30:46;100127.50;;;8.77;86.24
83894;BME280;73920;51.902;6.374;2023-12-22T11:33:13;100114.78;;;8.82;86.05
83894;BME280;73920;51.902;6.374;2023-12-22T11:35:41;100108.31;;;8.86;86.15
83894;BME280;73920;51.902;6.374;2023-12-22T11:38:08;100099.16;;;8.90;86.15
83894;BME280;73920;51.902;6.374;2023-12-22T11:40:36;100105.94;;;8.96;85.55
83894;BME280;73920;51.902;6.374;2023-12-22T11:43:03;100094.63;;;9.06;84.92
83894;BME280;73920;51.902;6.374;2023-12-22T11:45:33;100107.41;;;9.15;85.35
83894;BME280;73920;51.902;6.374;2023-12-22T11:48:08;100108.66;;;9.24;84.43
83894;BME280;73920;51.902;6.374;2023-12-22T11:50:34;100112.00;;;9.27;84.44
83894;BME280;73920;51.902;6.374;2023-12-22T12:00:53;100114.59;;;9.29;84.04
83894;BME280;73920;51.902;6.374;2023-12-22T12:03:19;100102.13;;;9.29;84.64
83894;BME280;73920;51.902;6.374;2023-12-22T12:05:45;100099.44;;;9.29;83.86
83894;BME280;73920;51.902;6.374;2023-12-22T12:08:11;100092.19;;;9.31;84.46
83894;BME280;73920;51.902;6.374;2023-12-22T12:10:51;100090.88;;;9.38;83.26
83894;BME280;73920;51.902;6.374;2023-12-22T12:13:23;100088.59;;;9.47;83.74
83894;BME280;73920;51.902;6.374;2023-12-22T12:15:50;100088.37;;;9.50;83.79
83894;BME280;73920;51.902;6.374;2023-12-22T12:18:22;100081.06;;;9.53;83.94
83894;BME280;73920;51.902;6.374;2023-12-22T12:20:49;100080.97;;;9.55;82.90
83894;BME280;73920;51.902;6.374;2023-12-22T12:23:16;100073.25;;;9.50;83.08
83894;BME280;73920;51.902;6.374;2023-12-22T12:25:42;100063.44;;;9.51;83.28
83894;BME280;73920;51.902;6.374;2023-12-22T12:28:09;100068.97;;;9.48;83.67
83894;BME280;73920;51.902;6.374;2023-12-22T12:30:37;100060.25;;;9.44;83.57
83894;BME280;73920;51.902;6.374;2023-12-22T12:33:09;100055.59;;;9.33;82.78
83894;BME280;73920;51.902;6.374;2023-12-22T12:35:37;100063.13;;;9.27;82.48
83894;BME280;73920;51.902;6.374;2023-12-22T12:38:04;100066.19;;;9.21;82.93
83894;BME280;73920;51.902;6.374;2023-12-22T12:40:31;100083.41;;;9.15;84.01
83894;BME280;73920;51.902;6.374;2023-12-22T12:42:58;100058.91;;;9.09;83.39
83894;BME280;73920;51.902;6.374;2023-12-22T12:45:24;100076.16;;;9.03;84.09
83894;BME280;73920;51.902;6.374;2023-12-22T12:47:59;100057.94;;;8.96;84.04
83894;BME280;73920;51.902;6.374;2023-12-22T12:50:26;100061.09;;;8.88;84.00
83894;BME280;73920;51.902;6.374;2023-12-22T12:52:53;100045.53;;;8.80;83.79
83894;BME280;73920;51.902;6.374;2023-12-22T12:55:24;100044.78;;;8.78;84.56
83894;BME280;73920;51.902;6.374;2023-12-22T12:57:54;100038.47;;;8.79;84.26
83894;BME280;73920;51.902;6.374;2023-12-22T13:00:26;100054.41;;;8.81;84.63
83894;BME280;73920;51.902;6.374;2023-12-22T13:03:01;100054.59;;;8.78;85.38
83894;BME280;73920;51.902;6.374;2023-12-22T13:05:28;100042.38;;;8.74;85.36
83894;BME280;73920;51.902;6.374;2023-12-22T13:08:07;100042.78;;;8.68;86.06
83894;BME280;73920;51.902;6.374;2023-12-22T13:10:33;100024.38;;;8.63;85.50
83894;BME280;73920;51.902;6.374;2023-12-22T13:12:59;100036.84;;;8.63;85.54
83894;BME280;73920;51.902;6.374;2023-12-22T13:15:26;100042.09;;;8.64;85.70
83894;BME280;73920;51.902;6.374;2023-12-22T13:17:52;100045.44;;;8.68;85.90
83894;BME280;73920;51.902;6.374;2023-12-22T13:20:19;100054.78;;;8.75;85.99